Diego Aracena Airport
SCDA : rendu visible

Aérodrome :











RETROUVEZ-NOUS SUR...

 
LOGIN :

S'inscrire | Disclaimer

   EN    FR    IT 

 









Légende :    VFR   VFR Marginal   IFR   IFR Intensif   IFR Très Intensif
Visi : 
Plafond : 
>= 8 km
>= 3000ft
5 à 8 km
1000 à 3000 ft
1500m à 5 km
500 à 1000 ft
800 à 1500m
200 à 500 ft
< 800m
< 200 ft
Symboles :   Orages  Brouillard  Fortes neiges  Fortes précipitations  Vent > 20 kt






- Altitude de l'aérodrome : 155 ft
- Code IATA : IQQ


SCDA - Diego Aracena

DERNIER METAR :
  • 302000Z 22018KT CAVOK 23/15 Q1011

METARs EXPIRÉS :
  • 301900Z 23017KT CAVOK 23/14 Q1012
  • 301800Z 22015KT CAVOK 23/14 Q1012

TAF TAF SCDA
Valide du 30 à 18h jusqu'au 31 à 18h UTC


301622Z 3018/3118 23018KT CAVOK TX24/3018Z TN18/3108Z
BECMG 3100/3102 16004KT
BECMG 3110/3112 21008KT
BECMG 3115/3117 23018KT



MET'MAP, la Météo Aéronautique d'un coup d'oeil ! - Copyright ORBIFLY Décembre 2007 - Disclaimer

ORBIFLY MET'MAP TEAM :

Programmation & Développement : Alexandra Zaïnal
Sur une idée originale de : Baudouin d'Aumeries
Assistance à la programmation : Marc-Olivier Méhu
Soutien technique & logistique : Manuel Goepfert

Contact : metmap@orbifly.com




SOURCES & CREDITS :

   NOAA       Earth
Advisory